Time;durP1;ratioP1;P1;durP2;ratioP2;P2;SDS_P1;SDS_P2;PMS_P1;PMS_P2;Temp;Humidity;BMP_temperature;BMP_pressure;BME280_temperature;BME280_humidity;BME280_pressure;Samples;Min_cycle;Max_cycle;Signal;HPM_P1;HPM_P2
2020/12/06 00:01:52;;;;;;;;;;;;;;;9.30;71.78;99354.37;127325;1098;21599;-77
2020/12/06 00:04:20;;;;;;;;;;;;;;;9.30;70.96;99346.02;127110;1097;21493;-77
2020/12/06 00:06:48;;;;;;;;;;;;;;;9.33;71.83;99345.05;127162;1097;21462;-77
2020/12/06 00:09:17;;;;;;;;;;;;;;;9.36;71.10;99346.83;127172;1095;21563;-77
2020/12/06 00:11:45;;;;;;;;;;;;;;;9.38;70.77;99335.95;127199;1097;21501;-77
2020/12/06 00:14:13;;;;;;;;;;;;;;;9.40;71.43;99341.80;127310;1095;21546;-77
2020/12/06 00:16:41;;;;;;;;;;;;;;;9.42;70.78;99328.14;127270;1095;21479;-77
2020/12/06 00:19:09;;;;;;;;;;;;;;;9.43;70.48;99329.69;127682;1097;21560;-77
2020/12/06 00:21:36;;;;;;;;;;;;;;;9.44;71.39;99328.41;127180;1097;24503;-77
2020/12/06 00:24:05;;;;;;;;;;;;;;;9.44;71.03;99315.25;127147;1097;21492;-76
2020/12/06 00:26:33;;;;;;;;;;;;;;;9.44;70.74;99311.70;126884;1097;21495;-76
2020/12/06 00:29:01;;;;;;;;;;;;;;;9.45;70.98;99316.80;127119;1097;21501;-77
2020/12/06 00:31:29;;;;;;;;;;;;;;;9.47;71.18;99316.30;127343;1097;22180;-77
2020/12/06 00:33:57;;;;;;;;;;;;;;;9.49;70.52;99308.20;127286;1095;21496;-77
2020/12/06 00:36:26;;;;;;;;;;;;;;;9.52;70.25;99315.56;127176;1095;21984;-77
2020/12/06 00:38:54;;;;;;;;;;;;;;;9.53;70.21;99311.53;127227;1097;21520;-77
2020/12/06 00:41:23;;;;;;;;;;;;;;;9.55;70.53;99315.36;127448;1097;21929;-77
2020/12/06 00:43:50;;;;;;;;;;;;;;;9.58;70.55;99311.56;127592;1097;21494;-77
2020/12/06 00:46:23;;;;;;;;;;;;;;;9.59;70.12;99315.13;127182;1097;21586;-77
2020/12/06 00:48:51;;;;;;;;;;;;;;;9.60;70.65;99311.84;127214;1097;22639;-77
2020/12/06 00:51:19;;;;;;;;;;;;;;;9.61;70.03;99315.39;127631;1096;22884;-77
2020/12/06 00:53:47;;;;;;;;;;;;;;;9.61;70.26;99316.16;127293;1095;22938;-77
2020/12/06 00:56:21;;;;;;;;;;;;;;;9.63;70.08;99318.45;127199;1097;21560;-77
2020/12/06 00:58:49;;;;;;;;;;;;;;;9.64;70.05;99314.41;127206;1097;21474;-77
2020/12/06 01:01:18;;;;;;;;;;;;;;;9.66;69.91;99317.47;127221;1097;21489;-77
2020/12/06 01:03:47;;;;;;;;;;;;;;;9.69;70.65;99316.47;127234;1097;21499;-77
2020/12/06 01:06:15;;;;;;;;;;;;;;;9.72;69.93;99324.59;127131;1097;21538;-77
2020/12/06 01:08:44;;;;;;;;;;;;;;;9.73;70.14;99322.58;127230;1096;21480;-77
2020/12/06 01:11:13;;;;;;;;;;;;;;;9.75;69.68;99331.20;127220;1097;24437;-77
2020/12/06 01:13:41;;;;;;;;;;;;;;;9.75;70.42;99336.78;127317;1096;23172;-77
2020/12/06 01:16:11;;;;;;;;;;;;;;;9.76;69.81;99332.75;127066;1098;24516;-77
2020/12/06 01:18:40;;;;;;;;;;;;;;;9.76;70.41;99327.94;127233;1096;21505;-77
2020/12/06 01:21:10;;;;;;;;;;;;;;;9.79;69.61;99340.88;127276;1095;21492;-77
2020/12/06 01:23:39;;;;;;;;;;;;;;;9.85;69.91;99331.80;127194;1096;21561;-77
2020/12/06 01:26:10;;;;;;;;;;;;;;;9.87;69.83;99335.59;127137;1097;21949;-77
2020/12/06 01:28:38;;;;;;;;;;;;;;;9.89;69.59;99333.08;127097;1097;21474;-77
2020/12/06 01:31:07;;;;;;;;;;;;;;;9.91;69.78;99324.98;127141;1097;21498;-76
2020/12/06 01:33:35;;;;;;;;;;;;;;;9.93;69.57;99325.25;127372;1097;21495;-77
2020/12/06 01:36:03;;;;;;;;;;;;;;;9.92;69.31;99320.95;127102;1096;21535;-77
2020/12/06 01:38:31;;;;;;;;;;;;;;;9.91;68.91;99324.23;127200;1096;21550;-77
2020/12/06 01:40:59;;;;;;;;;;;;;;;9.92;68.81;99322.96;127151;1097;21639;-77
2020/12/06 01:43:27;;;;;;;;;;;;;;;9.94;69.27;99326.79;127145;1097;21494;-77
2020/12/06 01:45:55;;;;;;;;;;;;;;;9.96;69.77;99315.13;127256;1097;21505;-77
2020/12/06 01:48:23;;;;;;;;;;;;;;;9.97;69.43;99314.66;127242;1095;21469;-77
2020/12/06 01:50:51;;;;;;;;;;;;;;;9.97;69.27;99313.88;127228;1097;21560;-77
2020/12/06 01:53:21;;;;;;;;;;;;;;;9.94;69.12;99324.00;127403;1097;21497;-77
2020/12/06 01:55:50;;;;;;;;;;;;;;;9.93;68.87;99314.09;127089;1095;21560;-77
2020/12/06 01:58:18;;;;;;;;;;;;;;;9.90;68.68;99317.89;127200;1097;24245;-77
2020/12/06 02:00:46;;;;;;;;;;;;;;;9.87;69.60;99318.13;127030;1097;21494;-77
2020/12/06 02:03:14;;;;;;;;;;;;;;;9.82;69.25;99307.69;127091;1097;24237;-77
2020/12/06 02:05:42;;;;;;;;;;;;;;;9.76;68.93;99316.02;127179;1095;24435;-77
2020/12/06 02:08:12;;;;;;;;;;;;;;;9.72;68.79;99312.70;127203;1097;21523;-77
2020/12/06 02:10:40;;;;;;;;;;;;;;;9.70;68.90;99318.75;127182;1097;21636;-77
2020/12/06 02:13:07;;;;;;;;;;;;;;;9.67;69.14;99308.61;127032;1097;21567;-77
2020/12/06 02:15:37;;;;;;;;;;;;;;;9.67;69.57;99302.27;127061;1097;22244;-77
2020/12/06 02:18:05;;;;;;;;;;;;;;;9.66;69.42;99303.54;127089;1097;23181;-77
2020/12/06 02:20:33;;;;;;;;;;;;;;;9.65;68.74;99318.72;127155;1095;21471;-77
2020/12/06 02:23:01;;;;;;;;;;;;;;;9.62;69.08;99309.31;127111;1097;21560;-77
2020/12/06 02:25:29;;;;;;;;;;;;;;;9.60;69.64;99300.69;127162;1097;21630;-77
2020/12/06 02:27:56;;;;;;;;;;;;;;;9.56;68.99;99300.16;127107;1098;21499;-77
2020/12/06 02:30:24;;;;;;;;;;;;;;;9.55;68.95;99311.80;127612;1097;23193;-77
2020/12/06 02:32:54;;;;;;;;;;;;;;;9.53;69.01;99314.31;127111;1095;21622;-77
2020/12/06 02:35:22;;;;;;;;;;;;;;;9.50;69.43;99306.94;127083;1097;21560;-78
2020/12/06 02:37:51;;;;;;;;;;;;;;;9.50;68.63;99304.92;127067;1097;21499;-77
2020/12/06 02:40:18;;;;;;;;;;;;;;;9.49;69.25;99311.77;127214;1097;21554;-77
2020/12/06 02:42:46;;;;;;;;;;;;;;;9.48;68.72;99306.66;126939;1096;21563;-77
2020/12/06 02:45:14;;;;;;;;;;;;;;;9.47;69.01;99307.94;127012;1098;22003;-77
2020/12/06 02:47:42;;;;;;;;;;;;;;;9.43;69.43;99308.17;127068;1090;24250;-77
2020/12/06 02:50:09;;;;;;;;;;;;;;;9.43;69.68;99310.19;127434;1096;21505;-77
2020/12/06 02:52:37;;;;;;;;;;;;;;;9.39;68.75;99304.07;127300;1095;22652;-77
2020/12/06 02:55:05;;;;;;;;;;;;;;;9.34;69.63;99299.20;127092;1097;21473;-77
2020/12/06 02:57:33;;;;;;;;;;;;;;;9.30;69.10;99312.59;126946;1097;24255;-77
2020/12/06 03:00:00;;;;;;;;;;;;;;;9.27;69.05;99316.38;127009;1097;21499;-77
2020/12/06 03:02:28;;;;;;;;;;;;;;;9.25;69.74;99308.49;127056;1098;21525;-78
2020/12/06 03:04:57;;;;;;;;;;;;;;;9.23;69.40;99322.14;127387;1097;21480;-77
2020/12/06 03:07:24;;;;;;;;;;;;;;;9.23;68.80;99318.62;127018;1097;21519;-77
2020/12/06 03:09:53;;;;;;;;;;;;;;;9.25;69.05;99321.67;127421;1096;21461;-77
2020/12/06 03:12:20;;;;;;;;;;;;;;;9.24;69.69;99315.33;127359;1096;21520;-77
2020/12/06 03:14:48;;;;;;;;;;;;;;;9.25;69.06;99321.67;127242;1097;21496;-77
2020/12/06 03:17:16;;;;;;;;;;;;;;;9.23;69.28;99324.93;127323;1095;21560;-77
2020/12/06 03:19:44;;;;;;;;;;;;;;;9.22;69.24;99317.84;127184;1097;21556;-77
2020/12/06 03:22:12;;;;;;;;;;;;;;;9.21;69.54;99318.34;127057;1090;24231;-77
2020/12/06 03:24:39;;;;;;;;;;;;;;;9.21;69.76;99315.56;127028;1097;22168;-77
2020/12/06 03:27:07;;;;;;;;;;;;;;;9.19;69.90;99316.03;127202;1097;22828;-77
2020/12/06 03:29:35;;;;;;;;;;;;;;;9.20;69.22;99319.59;127002;1097;21497;-78
2020/12/06 03:32:03;;;;;;;;;;;;;;;9.20;69.48;99319.59;127037;1096;23149;-77
2020/12/06 03:34:31;;;;;;;;;;;;;;;9.20;69.14;99316.80;127027;1095;21576;-77
2020/12/06 03:36:59;;;;;;;;;;;;;;;9.19;69.35;99329.95;127218;1097;21492;-77
2020/12/06 03:39:27;;;;;;;;;;;;;;;9.19;69.69;99329.95;127225;1095;21750;-77
2020/12/06 03:41:54;;;;;;;;;;;;;;;9.18;69.02;99322.10;127225;1096;21484;-77
2020/12/06 03:44:22;;;;;;;;;;;;;;;9.16;69.49;99330.19;126931;1097;21476;-77
2020/12/06 03:46:50;;;;;;;;;;;;;;;9.15;69.65;99329.41;127133;1097;24296;-77
2020/12/06 03:49:17;;;;;;;;;;;;;;;9.15;69.30;99325.85;127087;1097;21490;-77
2020/12/06 03:51:45;;;;;;;;;;;;;;;9.13;69.03;99329.14;126999;1097;21501;-77
2020/12/06 03:54:13;;;;;;;;;;;;;;;9.11;69.21;99317.73;127044;1097;22420;-77
2020/12/06 03:56:41;;;;;;;;;;;;;;;9.09;69.76;99320.24;127087;1097;21501;-77
2020/12/06 03:59:09;;;;;;;;;;;;;;;9.09;69.62;99325.81;127206;1096;21480;-77
2020/12/06 04:01:37;;;;;;;;;;;;;;;9.09;69.52;99328.59;127105;1097;24191;-77
2020/12/06 04:04:05;;;;;;;;;;;;;;;9.10;69.35;99323.80;127476;1097;21496;-77
2020/12/06 04:06:33;;;;;;;;;;;;;;;9.10;69.81;99330.13;127044;1096;21599;-77
2020/12/06 04:09:01;;;;;;;;;;;;;;;9.09;69.39;99330.61;127288;1097;21594;-77
2020/12/06 04:11:28;;;;;;;;;;;;;;;9.09;69.74;99322.25;127116;1097;21557;-77
2020/12/06 04:13:56;;;;;;;;;;;;;;;9.08;69.93;99327.08;126993;1097;21480;-77
2020/12/06 04:16:24;;;;;;;;;;;;;;;9.08;69.32;99329.09;127047;1097;21491;-77
2020/12/06 04:18:51;;;;;;;;;;;;;;;9.06;70.08;99331.60;127075;1098;21497;-77
2020/12/06 04:21:20;;;;;;;;;;;;;;;9.05;69.79;99335.63;127273;1095;21503;-77
2020/12/06 04:23:48;;;;;;;;;;;;;;;9.04;70.02;99340.45;127418;1095;21553;-77
2020/12/06 04:26:16;;;;;;;;;;;;;;;9.04;69.98;99343.23;127073;1097;25767;-77
2020/12/06 04:28:44;;;;;;;;;;;;;;;9.05;69.92;99338.41;127046;1097;21484;-77
2020/12/06 04:31:13;;;;;;;;;;;;;;;9.07;70.19;99344.25;127057;1097;21516;-77
2020/12/06 04:33:42;;;;;;;;;;;;;;;9.07;69.68;99341.47;127055;1097;21662;-77
2020/12/06 04:36:09;;;;;;;;;;;;;;;9.06;69.28;99331.60;127225;1097;22993;-77
2020/12/06 04:38:37;;;;;;;;;;;;;;;9.07;69.67;99338.69;127273;1096;23125;-77
2020/12/06 04:41:05;;;;;;;;;;;;;;;9.08;70.13;99343.02;127316;1095;21564;-77
2020/12/06 04:43:34;;;;;;;;;;;;;;;9.05;70.40;99336.40;127196;1095;24212;-77
2020/12/06 04:46:02;;;;;;;;;;;;;;;9.04;70.42;99334.88;127189;1096;21563;-77
2020/12/06 04:48:40;;;;;;;;;;;;;;;9.01;69.48;99329.52;127214;1096;21613;-77
2020/12/06 04:51:13;;;;;;;;;;;;;;;9.01;69.98;99332.30;127589;1098;21496;-77
2020/12/06 04:53:44;;;;;;;;;;;;;;;8.98;69.68;99331.25;127187;1096;21477;-78
2020/12/06 04:56:12;;;;;;;;;;;;;;;8.96;70.08;99333.76;127103;1097;24466;-77
2020/12/06 04:58:40;;;;;;;;;;;;;;;8.94;70.05;99328.69;126965;1097;21492;-77
2020/12/06 05:01:08;;;;;;;;;;;;;;;8.93;69.76;99334.75;127316;1095;24254;-77
2020/12/06 05:03:37;;;;;;;;;;;;;;;8.93;69.81;99329.19;127191;1097;23305;-77
2020/12/06 05:06:05;;;;;;;;;;;;;;;8.93;69.52;99338.31;127314;1097;21529;-77
2020/12/06 05:08:34;;;;;;;;;;;;;;;8.94;69.75;99319.56;127451;1097;21624;-77
2020/12/06 05:11:02;;;;;;;;;;;;;;;8.93;70.46;99323.63;127226;1097;22347;-77
2020/12/06 05:13:30;;;;;;;;;;;;;;;8.92;69.91;99331.20;127036;1097;24577;-77
2020/12/06 05:15:59;;;;;;;;;;;;;;;8.92;69.93;99333.98;127091;1097;21557;-77
2020/12/06 05:18:26;;;;;;;;;;;;;;;8.93;70.03;99329.19;127166;1096;22111;-77
2020/12/06 05:20:54;;;;;;;;;;;;;;;8.92;70.42;99328.42;127205;1097;21490;-77
2020/12/06 05:23:23;;;;;;;;;;;;;;;8.92;70.11;99331.20;127135;1097;21639;-77
2020/12/06 05:25:50;;;;;;;;;;;;;;;8.92;70.36;99336.00;127062;1097;23902;-77
2020/12/06 05:28:20;;;;;;;;;;;;;;;8.91;70.13;99340.81;127303;1097;21560;-77
2020/12/06 05:30:48;;;;;;;;;;;;;;;8.89;70.40;99332.20;127092;1097;21488;-77
2020/12/06 05:33:17;;;;;;;;;;;;;;;8.89;70.03;99329.41;126984;1090;21586;-77
2020/12/06 05:35:45;;;;;;;;;;;;;;;8.89;70.49;99329.41;127320;1097;21484;-77
2020/12/06 05:38:14;;;;;;;;;;;;;;;8.89;70.48;99334.20;127113;1097;21499;-75
2020/12/06 05:40:45;;;;;;;;;;;;;;;8.92;70.20;99324.86;126907;1097;21492;-77
2020/12/06 05:43:13;;;;;;;;;;;;;;;8.94;69.95;99319.56;127083;1090;24558;-77
2020/12/06 05:45:41;;;;;;;;;;;;;;;8.96;70.27;99334.53;127652;1097;21509;-77
2020/12/06 05:48:09;;;;;;;;;;;;;;;8.96;70.40;99328.97;127008;1097;21529;-77
2020/12/06 05:50:37;;;;;;;;;;;;;;;8.97;69.75;99329.73;127107;1097;21576;-77
2020/12/06 05:53:05;;;;;;;;;;;;;;;8.98;69.87;99330.51;127133;1097;21535;-77
2020/12/06 05:55:33;;;;;;;;;;;;;;;8.98;70.26;99336.08;127127;1097;21492;-77
2020/12/06 05:58:02;;;;;;;;;;;;;;;8.96;69.42;99328.97;127146;1095;24276;-77
2020/12/06 06:00:32;;;;;;;;;;;;;;;8.98;70.16;99331.25;127046;1095;23038;-77
2020/12/06 06:03:00;;;;;;;;;;;;;;;8.98;69.66;99337.59;127125;1097;26617;-77
2020/12/06 06:05:28;;;;;;;;;;;;;;;9.00;69.71;99339.13;127154;1097;25735;-77
2020/12/06 06:07:59;;;;;;;;;;;;;;;9.02;70.23;99333.84;127018;1097;21607;-74
2020/12/06 06:10:30;;;;;;;;;;;;;;;9.04;70.35;99345.25;126712;1097;21505;-76
2020/12/06 06:13:01;;;;;;;;;;;;;;;9.05;70.04;99333.61;126901;1097;21560;-78
2020/12/06 06:15:30;;;;;;;;;;;;;;;9.08;69.65;99331.88;127265;1097;21488;-77
2020/12/06 06:17:59;;;;;;;;;;;;;;;9.07;70.18;99325.53;127304;1098;21586;-77
2020/12/06 06:20:29;;;;;;;;;;;;;;;9.08;69.55;99331.88;127556;1096;21547;-77
2020/12/06 06:22:58;;;;;;;;;;;;;;;9.07;70.13;99328.32;127163;1095;21515;-77
2020/12/06 06:25:26;;;;;;;;;;;;;;;9.09;69.46;99322.25;127167;1097;21497;-77
2020/12/06 06:27:55;;;;;;;;;;;;;;;9.11;69.73;99311.39;127160;1096;21545;-77
2020/12/06 06:30:23;;;;;;;;;;;;;;;9.12;70.42;99316.48;127172;1097;22088;-77
2020/12/06 06:32:50;;;;;;;;;;;;;;;9.16;69.06;99319.05;127191;1097;24198;-77
2020/12/06 06:35:19;;;;;;;;;;;;;;;9.20;70.25;99319.59;127154;1097;21542;-77
2020/12/06 06:37:47;;;;;;;;;;;;;;;9.21;70.07;99321.88;127196;1097;23008;-77
2020/12/06 06:40:15;;;;;;;;;;;;;;;9.24;70.02;99331.27;127189;1090;21794;-77
2020/12/06 06:42:43;;;;;;;;;;;;;;;9.27;69.41;99324.73;127099;1097;24241;-77
2020/12/06 06:45:12;;;;;;;;;;;;;;;9.28;70.00;99317.89;127193;1095;21505;-77
2020/12/06 06:47:41;;;;;;;;;;;;;;;9.27;69.27;99317.12;127193;1097;21582;-77
2020/12/06 06:50:10;;;;;;;;;;;;;;;9.26;69.47;99323.19;127119;1097;21505;-77
2020/12/06 06:52:40;;;;;;;;;;;;;;;9.24;69.78;99315.33;127122;1097;21503;-77
2020/12/06 06:55:09;;;;;;;;;;;;;;;9.25;69.45;99313.32;127566;1097;21780;-77
2020/12/06 06:57:39;;;;;;;;;;;;;;;9.26;69.91;99304.47;127212;1097;21494;-77
2020/12/06 07:00:08;;;;;;;;;;;;;;;9.28;69.70;99303.96;127111;1097;22205;-77
2020/12/06 07:02:37;;;;;;;;;;;;;;;9.27;69.03;99303.19;127536;1098;21502;-77
2020/12/06 07:05:07;;;;;;;;;;;;;;;9.29;69.27;99311.08;127317;1097;21500;-77
2020/12/06 07:07:42;;;;;;;;;;;;;;;9.29;69.67;99316.64;127272;1090;21522;-77
2020/12/06 07:10:11;;;;;;;;;;;;;;;9.28;69.47;99307.52;127321;1096;21495;-77
2020/12/06 07:12:40;;;;;;;;;;;;;;;9.26;69.45;99312.82;127143;1097;21560;-77
2020/12/06 07:15:09;;;;;;;;;;;;;;;9.26;69.14;99307.25;127174;1097;21505;-77
2020/12/06 07:17:37;;;;;;;;;;;;;;;9.26;69.55;99309.27;127129;1097;21556;-77
2020/12/06 07:20:06;;;;;;;;;;;;;;;9.26;69.33;99306.48;127221;1097;21485;-77
2020/12/06 07:22:34;;;;;;;;;;;;;;;9.26;69.54;99303.69;127187;1097;21800;-77
2020/12/06 07:25:03;;;;;;;;;;;;;;;9.28;69.24;99303.96;127260;1095;21569;-77
2020/12/06 07:27:31;;;;;;;;;;;;;;;9.29;69.61;99308.30;127367;1097;24433;-77
2020/12/06 07:29:59;;;;;;;;;;;;;;;9.30;69.49;99312.59;127840;1096;25006;-77
2020/12/06 07:32:28;;;;;;;;;;;;;;;9.30;69.52;99310.58;127381;1095;21563;-77
2020/12/06 07:34:56;;;;;;;;;;;;;;;9.32;69.52;99310.08;127070;1097;25853;-76
2020/12/06 07:37:23;;;;;;;;;;;;;;;9.34;69.58;99319.47;126998;1097;25403;-77
2020/12/06 07:39:51;;;;;;;;;;;;;;;9.33;69.02;99317.93;126953;1095;21586;-76
2020/12/06 07:42:19;;;;;;;;;;;;;;;9.34;69.64;99316.69;126925;1097;21563;-77
2020/12/06 07:44:49;;;;;;;;;;;;;;;9.35;69.08;99320.98;126978;1095;21509;-76
2020/12/06 07:47:17;;;;;;;;;;;;;;;9.36;69.98;99319.75;127026;1095;21663;-77
2020/12/06 07:49:46;;;;;;;;;;;;;;;9.37;69.22;99318.47;127056;1097;24237;-77
2020/12/06 07:52:15;;;;;;;;;;;;;;;9.41;69.45;99319.04;127059;1096;21526;-77
2020/12/06 07:54:53;;;;;;;;;;;;;;;9.43;69.18;99316.53;127002;1097;21493;-76
2020/12/06 07:57:25;;;;;;;;;;;;;;;9.45;69.17;99321.59;127076;1097;22901;-77
2020/12/06 07:59:53;;;;;;;;;;;;;;;9.46;69.42;99325.89;127218;1097;21497;-77
2020/12/06 08:02:22;;;;;;;;;;;;;;;9.48;69.23;99320.59;127204;1097;21501;-77
2020/12/06 08:04:51;;;;;;;;;;;;;;;9.48;69.42;99315.80;127146;1097;25680;-77
2020/12/06 08:07:24;;;;;;;;;;;;;;;9.48;69.89;99317.80;127363;1095;21497;-77
2020/12/06 08:09:55;;;;;;;;;;;;;;;9.48;69.77;99326.16;127752;1096;21494;-77
2020/12/06 08:12:24;;;;;;;;;;;;;;;9.51;68.85;99325.19;127351;1095;21478;-77
2020/12/06 08:15:03;;;;;;;;;;;;;;;9.52;68.66;99318.34;127522;1096;21497;-78
2020/12/06 08:17:47;;;;;;;;;;;;;;;9.54;69.16;99321.41;127536;1096;21561;-77
2020/12/06 08:20:15;;;;;;;;;;;;;;;9.59;69.04;99323.48;127893;1096;21552;-79
2020/12/06 08:22:50;;;;;;;;;;;;;;;9.62;69.09;99330.87;128245;1097;21496;-78
2020/12/06 08:25:20;;;;;;;;;;;;;;;9.63;68.80;99321.23;128094;1096;21532;-78
2020/12/06 08:27:49;;;;;;;;;;;;;;;9.65;69.25;99325.06;127720;1095;24248;-78
2020/12/06 08:30:19;;;;;;;;;;;;;;;9.71;68.69;99334.23;127725;1097;21486;-78
2020/12/06 08:32:54;;;;;;;;;;;;;;;9.76;69.47;99329.96;127353;1096;21951;-81
2020/12/06 08:35:36;;;;;;;;;;;;;;;9.82;69.25;99327.97;127971;1097;21497;-80
2020/12/06 08:38:15;;;;;;;;;;;;;;;9.90;68.87;99329.05;127901;1097;24898;-80
2020/12/06 08:40:58;;;;;;;;;;;;;;;9.98;68.69;99330.11;128166;1097;21500;-80
2020/12/06 08:43:38;;;;;;;;;;;;;;;10.04;68.38;99335.72;128196;1097;21620;-79
2020/12/06 08:46:07;;;;;;;;;;;;;;;10.10;68.54;99333.72;128043;1098;21506;-79
2020/12/06 08:48:35;;;;;;;;;;;;;;;10.13;68.05;99339.12;128133;1097;25766;-80
2020/12/06 08:51:03;;;;;;;;;;;;;;;10.17;68.24;99322.14;127977;1097;22175;-80
2020/12/06 08:53:44;;;;;;;;;;;;;;;10.21;68.56;99331.81;127562;1090;23123;-79
2020/12/06 08:56:25;;;;;;;;;;;;;;;10.23;67.96;99329.28;127640;1097;21535;-79
2020/12/06 08:58:53;;;;;;;;;;;;;;;10.26;68.06;99330.32;128118;1097;21773;-81
2020/12/06 09:01:21;;;;;;;;;;;;;;;10.29;68.29;99330.08;127842;1097;21497;-80
2020/12/06 09:03:49;;;;;;;;;;;;;;;10.33;68.16;99329.84;127479;1097;21535;-77
2020/12/06 09:06:18;;;;;;;;;;;;;;;10.37;67.85;99331.13;127302;1097;21519;-77
2020/12/06 09:08:45;;;;;;;;;;;;;;;10.39;67.67;99334.19;126967;1095;21506;-76
2020/12/06 09:11:14;;;;;;;;;;;;;;;10.43;67.60;99336.73;127266;1096;21513;-80
2020/12/06 09:13:42;;;;;;;;;;;;;;;10.45;68.00;99337.77;128274;1096;21610;-77
2020/12/06 09:16:10;;;;;;;;;;;;;;;10.47;68.34;99340.81;127391;1097;21727;-78
2020/12/06 09:18:38;;;;;;;;;;;;;;;10.49;68.07;99329.92;127017;1097;21498;-78
2020/12/06 09:21:07;;;;;;;;;;;;;;;10.51;67.93;99338.55;127303;1096;21529;-78
2020/12/06 09:23:36;;;;;;;;;;;;;;;10.53;67.59;99336.02;128062;1097;22505;-78
2020/12/06 09:26:05;;;;;;;;;;;;;;;10.54;67.54;99337.56;128282;1097;21517;-79
2020/12/06 09:28:33;;;;;;;;;;;;;;;10.57;67.43;99324.64;127434;1097;21573;-78
2020/12/06 09:31:01;;;;;;;;;;;;;;;10.60;67.34;99323.63;127347;1096;21468;-78
2020/12/06 09:33:29;;;;;;;;;;;;;;;10.62;67.22;99314.74;127588;1097;22241;-78
2020/12/06 09:35:57;;;;;;;;;;;;;;;10.64;67.01;99318.56;127552;1096;21639;-78
2020/12/06 09:38:26;;;;;;;;;;;;;;;10.67;67.93;99319.59;127348;1097;24231;-77
2020/12/06 09:40:54;;;;;;;;;;;;;;;10.69;67.70;99325.44;127127;1097;24888;-77
2020/12/06 09:43:23;;;;;;;;;;;;;;;10.70;67.71;99324.19;127431;1096;21505;-79
2020/12/06 09:45:51;;;;;;;;;;;;;;;10.70;67.10;99324.19;127906;1097;21705;-80
2020/12/06 09:48:19;;;;;;;;;;;;;;;10.71;66.97;99320.12;127992;1097;21475;-80
2020/12/06 09:50:47;;;;;;;;;;;;;;;10.71;67.47;99318.09;128387;1097;60690;-78
2020/12/06 09:53:15;;;;;;;;;;;;;;;10.71;67.25;99314.53;128898;1093;21493;-79
2020/12/06 09:55:45;;;;;;;;;;;;;;;10.73;67.42;99314.80;128633;1098;21516;-79
2020/12/06 09:58:15;;;;;;;;;;;;;;;10.74;67.31;99305.17;128754;1098;21595;-79
2020/12/06 10:00:43;;;;;;;;;;;;;;;10.78;67.90;99308.48;128102;1093;21566;-81
2020/12/06 10:03:11;;;;;;;;;;;;;;;10.80;67.09;99298.31;128689;1093;21508;-76
2020/12/06 10:05:39;;;;;;;;;;;;;;;10.82;67.29;99301.36;128519;1098;21468;-82
2020/12/06 10:10:23;;;;;;;18.47;6.83;;;;;;;10.87;67.85;99297.06;125739;1093;23422;-63
2020/12/06 10:12:52;;;;;;;20.17;7.50;;;;;;;10.88;67.17;99291.00;129822;1101;23212;-63
2020/12/06 10:15:21;;;;;;;19.35;8.10;;;;;;;10.89;67.24;99289.72;130111;1093;23187;-62
2020/12/06 10:17:51;;;;;;;17.00;7.23;;;;;;;10.91;67.38;99287.19;130150;1098;23183;-64
2020/12/06 10:20:21;;;;;;;20.17;7.20;;;;;;;10.93;66.81;99283.87;130128;1099;23608;-62
2020/12/06 10:22:50;;;;;;;17.42;5.67;;;;;;;10.95;66.89;99273.73;130059;1100;23943;-63
2020/12/06 10:25:19;;;;;;;18.93;7.07;;;;;;;11.00;66.73;99278.58;130105;1099;23242;-58
2020/12/06 10:27:48;;;;;;;17.97;6.50;;;;;;;11.03;67.18;99285.16;130124;1093;24400;-63
2020/12/06 10:30:18;;;;;;;22.17;7.77;;;;;;;11.03;67.00;99277.55;130131;1098;24709;-65
2020/12/06 10:32:48;;;;;;;22.80;9.13;;;;;;;11.05;66.49;99286.19;130075;1098;23158;-57
2020/12/06 10:35:17;;;;;;;23.27;12.80;;;;;;;11.07;66.73;99280.12;130100;1098;23156;-61
2020/12/06 10:37:47;;;;;;;20.63;10.93;;;;;;;11.08;66.72;99284.42;130142;1092;23166;-63
2020/12/06 10:40:16;;;;;;;25.93;9.87;;;;;;;11.09;66.83;99289.50;130133;1099;24710;-58
2020/12/06 10:42:48;;;;;;;18.10;7.72;;;;;;;11.10;66.50;99295.86;130103;1098;23217;-58
2020/12/06 10:45:18;;;;;;;19.80;8.03;;;;;;;11.09;66.38;99305.52;126747;1098;23379;-61
2020/12/06 10:47:49;;;;;;;24.77;8.00;;;;;;;11.08;66.56;99312.36;125994;1098;23366;-54
2020/12/06 10:50:19;;;;;;;18.50;5.83;;;;;;;11.08;66.39;99310.33;126113;1098;24861;-65
2020/12/06 10:52:48;;;;;;;21.02;7.87;;;;;;;11.07;66.02;99308.05;127466;1093;23379;-64
2020/12/06 10:55:24;;;;;;;19.40;6.30;;;;;;;11.07;66.08;99310.84;127944;1098;23903;-55
2020/12/06 10:57:55;;;;;;;21.47;8.37;;;;;;;11.07;65.88;99308.80;126184;1098;23388;-56
2020/12/06 11:00:25;;;;;;;20.63;9.10;;;;;;;11.08;65.81;99315.92;126847;1098;24941;-56
2020/12/06 11:02:54;;;;;;;22.15;8.70;;;;;;;11.09;66.06;99311.10;130329;1098;23258;-63
2020/12/06 11:05:24;;;;;;;19.30;7.80;;;;;;;11.09;65.92;99313.89;126582;1098;23322;-57
2020/12/06 11:07:54;;;;;;;19.37;7.92;;;;;;;11.10;66.98;99323.78;126503;1098;23366;-54
2020/12/06 11:10:24;;;;;;;28.92;14.43;;;;;;;11.12;66.29;99326.84;126316;1098;23598;-55
2020/12/06 11:12:54;;;;;;;53.63;31.90;;;;;;;11.11;66.11;99319.73;126777;1098;23354;-56
2020/12/06 11:15:24;;;;;;;60.10;33.90;;;;;;;11.10;66.11;99309.82;126273;1098;23322;-56
2020/12/06 11:17:54;;;;;;;33.98;15.58;;;;;;;11.12;66.45;99312.87;126390;1098;28000;-58
2020/12/06 11:20:23;;;;;;;26.77;10.95;;;;;;;11.12;66.47;99324.05;126392;1099;23471;-54
2020/12/06 11:22:53;;;;;;;25.12;10.82;;;;;;;11.14;66.31;99318.72;126297;1098;23555;-58
2020/12/06 11:25:23;;;;;;;24.55;9.20;;;;;;;11.15;66.28;99320.25;126235;1098;23318;-57
2020/12/06 11:27:53;;;;;;;23.15;9.20;;;;;;;11.18;66.17;99322.02;126382;1098;27739;-57
2020/12/06 11:30:23;;;;;;;20.70;8.07;;;;;;;11.19;65.70;99315.17;126438;1099;23436;-58
2020/12/06 11:32:53;;;;;;;20.40;7.97;;;;;;;11.20;66.37;99311.88;126425;1099;23450;-58
2020/12/06 11:35:23;;;;;;;24.18;8.75;;;;;;;11.22;65.54;99306.55;125948;1093;23396;-61
2020/12/06 11:37:52;;;;;;;21.75;7.42;;;;;;;11.24;66.07;99311.61;130154;1098;23197;-63
2020/12/06 11:40:22;;;;;;;19.33;7.50;;;;;;;11.25;66.15;99310.36;130084;1098;24255;-63
2020/12/06 11:42:51;;;;;;;23.70;8.10;;;;;;;11.26;65.81;99309.84;130068;1098;23261;-63
2020/12/06 11:45:20;;;;;;;21.10;7.97;;;;;;;11.28;65.75;99296.13;130136;1098;23280;-64
2020/12/06 11:47:50;;;;;;;20.47;8.10;;;;;;;11.30;65.69;99312.38;130131;1098;23264;-64
2020/12/06 11:50:19;;;;;;;16.97;5.97;;;;;;;11.33;65.60;99314.95;130119;1092;24875;-62
2020/12/06 11:52:59;;;;;;;21.37;7.15;;;;;;;11.38;65.37;99305.02;129234;1098;23320;-65
2020/12/06 11:55:56;;;;;;;24.53;9.67;;;;;;;11.44;65.51;99303.02;125941;1098;26552;-64
2020/12/06 11:58:33;;;;;;;25.03;9.90;;;;;;;11.46;65.63;99297.68;130105;1098;23146;-63
2020/12/06 12:01:03;;;;;;;24.30;9.03;;;;;;;11.48;64.94;99302.76;130144;1099;23162;-63
2020/12/06 12:03:32;;;;;;;22.17;8.93;;;;;;;11.49;65.23;99309.86;130107;1098;23242;-62
2020/12/06 12:06:02;;;;;;;24.00;10.27;;;;;;;11.49;65.71;99307.83;130105;1098;24680;-64
2020/12/06 12:08:31;;;;;;;27.70;12.03;;;;;;;11.51;65.72;99312.91;130150;1098;23195;-64
2020/12/06 12:11:01;;;;;;;21.50;8.25;;;;;;;11.49;65.75;99307.06;130107;1098;24438;-65
2020/12/06 12:13:30;;;;;;;19.60;7.37;;;;;;;11.47;64.91;99301.98;130129;1098;23352;-65
2020/12/06 12:15:59;;;;;;;21.30;8.50;;;;;;;11.45;65.20;99310.12;130134;1092;23218;-61
2020/12/06 12:18:29;;;;;;;21.90;8.50;;;;;;;11.45;65.24;99303.76;130137;1093;23171;-62
2020/12/06 12:20:58;;;;;;;21.67;8.97;;;;;;;11.41;65.75;99292.84;130135;1090;23235;-63
2020/12/06 12:23:28;;;;;;;23.15;9.70;;;;;;;11.38;65.98;99297.41;130130;1098;23153;-62
2020/12/06 12:25:58;;;;;;;26.47;10.73;;;;;;;11.34;65.73;99299.69;126197;1098;23322;-64
2020/12/06 12:28:27;;;;;;;23.62;9.45;;;;;;;11.32;65.65;99290.28;126558;1098;23326;-63
2020/12/06 12:30:57;;;;;;;24.32;9.35;;;;;;;11.29;65.20;99292.08;126113;1098;28228;-64
2020/12/06 12:33:27;;;;;;;25.73;10.43;;;;;;;11.26;65.76;99293.08;126160;1098;25039;-63
2020/12/06 12:35:56;;;;;;;26.62;10.08;;;;;;;11.23;65.70;99288.52;126175;1098;30566;-62
2020/12/06 12:38:26;;;;;;;26.48;10.78;;;;;;;11.19;65.14;99290.78;126507;1098;23379;-63